createdAt,value
2023-04-15T00:01:49.780Z,7.51
2023-04-15T00:04:16.416Z,7.75
2023-04-15T00:06:42.973Z,7.61
2023-04-15T00:09:09.351Z,7.56
2023-04-15T00:11:35.723Z,7.27
2023-04-15T00:14:02.140Z,7.28
2023-04-15T00:16:28.543Z,7.34
2023-04-15T00:18:54.951Z,7.17
2023-04-15T00:21:21.448Z,7.22
2023-04-15T00:23:52.485Z,7.33
2023-04-15T00:26:19.644Z,7.49
2023-04-15T00:28:46.809Z,7.28
2023-04-15T00:31:13.407Z,7.24
2023-04-15T00:33:40.106Z,7.20
2023-04-15T00:36:07.238Z,7.32
2023-04-15T00:38:33.624Z,7.20
2023-04-15T00:41:00.156Z,6.98
2023-04-15T00:43:26.650Z,7.14
2023-04-15T00:45:54.460Z,7.03
2023-04-15T00:48:21.230Z,6.85
2023-04-15T00:50:47.642Z,7.01
2023-04-15T00:53:13.985Z,7.07
2023-04-15T00:55:40.427Z,7.13
2023-04-15T00:58:07.126Z,6.93
2023-04-15T01:00:34.524Z,7.11
2023-04-15T01:03:01.583Z,7.07
2023-04-15T01:05:28.574Z,7.13
2023-04-15T01:07:55.440Z,6.98
2023-04-15T01:10:22.098Z,7.06
2023-04-15T01:12:48.596Z,6.90
2023-04-15T01:15:15.987Z,6.87
2023-04-15T01:17:42.712Z,6.84
2023-04-15T01:20:12.550Z,6.84
2023-04-15T01:22:39.382Z,6.92
2023-04-15T01:25:09.716Z,6.76
2023-04-15T01:27:38.901Z,6.78
2023-04-15T01:30:07.899Z,6.73
2023-04-15T01:32:34.360Z,6.55
2023-04-15T01:35:00.768Z,6.66
2023-04-15T01:37:27.509Z,6.57
2023-04-15T01:39:53.876Z,6.48
2023-04-15T01:42:21.852Z,6.53
2023-04-15T01:44:48.208Z,6.47
2023-04-15T01:47:14.779Z,6.65
2023-04-15T01:49:41.485Z,6.63
2023-04-15T01:52:08.043Z,6.53
2023-04-15T01:54:34.494Z,6.56
2023-04-15T01:57:00.869Z,6.50
2023-04-15T01:59:27.346Z,6.46
2023-04-15T02:01:53.745Z,6.31
2023-04-15T02:04:20.121Z,6.44
2023-04-15T02:06:46.463Z,6.32
2023-04-15T02:09:13.351Z,6.36
2023-04-15T02:11:39.864Z,6.39
2023-04-15T02:14:06.373Z,6.30
2023-04-15T02:16:33.969Z,6.23
2023-04-15T02:19:01.373Z,6.01
2023-04-15T02:21:27.989Z,6.24
2023-04-15T02:23:54.402Z,6.10
2023-04-15T02:26:20.829Z,5.97
2023-04-15T02:28:47.313Z,6.23
2023-04-15T02:31:13.676Z,6.08
2023-04-15T02:33:40.644Z,6.09
2023-04-15T02:36:08.284Z,6.07
2023-04-15T02:38:34.767Z,5.95
2023-04-15T02:41:01.589Z,5.97
2023-04-15T02:43:27.937Z,6.10
2023-04-15T02:45:54.326Z,5.97
2023-04-15T02:48:20.827Z,5.90
2023-04-15T02:50:48.042Z,5.88
2023-04-15T02:53:14.767Z,6.02
2023-04-15T02:55:41.338Z,6.01
2023-04-15T02:58:07.713Z,5.98
2023-04-15T03:00:34.250Z,5.87
2023-04-15T03:03:05.400Z,5.80
2023-04-15T03:05:32.086Z,5.99
2023-04-15T03:07:58.468Z,5.88
2023-04-15T03:10:24.930Z,5.86
2023-04-15T03:12:51.601Z,5.76
2023-04-15T03:15:18.016Z,5.81
2023-04-15T03:17:44.470Z,5.82
2023-04-15T03:20:11.192Z,5.68
2023-04-15T03:22:37.669Z,5.84
2023-04-15T03:25:04.335Z,5.75
2023-04-15T03:27:30.944Z,5.83
2023-04-15T03:29:57.371Z,5.87
2023-04-15T03:32:24.285Z,5.76
2023-04-15T03:34:50.690Z,5.81
2023-04-15T03:37:17.135Z,5.86
2023-04-15T03:39:43.536Z,5.68
2023-04-15T03:42:09.939Z,5.82
2023-04-15T03:44:36.296Z,5.74
2023-04-15T03:47:02.695Z,5.68
2023-04-15T03:49:29.075Z,5.58
2023-04-15T03:51:55.753Z,5.59
2023-04-15T03:54:22.135Z,5.33
2023-04-15T03:56:48.485Z,5.50
2023-04-15T03:59:14.846Z,5.47
2023-04-15T04:01:41.304Z,5.42
2023-04-15T04:04:07.893Z,5.36
2023-04-15T04:06:34.446Z,5.60
2023-04-15T04:09:01.754Z,5.58
2023-04-15T04:11:28.321Z,5.64
2023-04-15T04:13:54.664Z,5.60
2023-04-15T04:16:21.206Z,5.54
2023-04-15T04:18:47.658Z,5.55
2023-04-15T04:21:14.153Z,5.56
2023-04-15T04:23:40.621Z,5.46
2023-04-15T04:26:07.134Z,5.23
2023-04-15T04:28:33.825Z,5.20
2023-04-15T04:31:00.396Z,5.25
2023-04-15T04:33:26.745Z,5.19
2023-04-15T04:35:53.087Z,5.19
2023-04-15T04:38:19.452Z,5.26
2023-04-15T04:40:45.883Z,5.39
2023-04-15T04:43:13.158Z,5.37
2023-04-15T04:45:39.591Z,5.40
2023-04-15T04:48:07.206Z,5.41
2023-04-15T04:50:33.872Z,5.50
2023-04-15T04:53:00.882Z,5.45
2023-04-15T04:55:27.827Z,5.41
2023-04-15T04:57:54.220Z,5.47
2023-04-15T05:00:20.694Z,5.36
2023-04-15T05:02:47.288Z,5.44
2023-04-15T05:05:13.740Z,5.44
2023-04-15T05:07:40.574Z,5.53
2023-04-15T05:10:07.634Z,5.57
2023-04-15T05:12:34.072Z,5.49
2023-04-15T05:15:00.523Z,5.44
2023-04-15T05:17:27.300Z,5.54
2023-04-15T05:19:53.816Z,5.51
2023-04-15T05:22:20.262Z,5.53
2023-04-15T05:24:46.676Z,5.46
2023-04-15T05:27:13.109Z,5.75
2023-04-15T05:29:39.484Z,5.71
2023-04-15T05:32:06.567Z,5.75
2023-04-15T05:34:32.913Z,5.70
2023-04-15T05:36:59.262Z,5.86
2023-04-15T05:39:25.598Z,5.83
2023-04-15T05:41:52.080Z,5.90
2023-04-15T05:44:18.505Z,6.08
2023-04-15T05:46:44.892Z,6.20
2023-04-15T05:49:11.233Z,6.61
2023-04-15T05:51:37.664Z,6.79
2023-04-15T05:54:04.009Z,6.74
2023-04-15T05:56:30.550Z,6.99
2023-04-15T05:58:56.978Z,7.20
2023-04-15T06:01:23.456Z,7.42
2023-04-15T06:03:50.181Z,7.66
2023-04-15T06:06:16.612Z,7.83
2023-04-15T06:08:42.980Z,7.76
2023-04-15T06:11:09.343Z,8.08
2023-04-15T06:13:35.755Z,7.95
2023-04-15T06:16:02.156Z,7.99
2023-04-15T06:18:28.560Z,8.11
2023-04-15T06:20:54.985Z,8.35
2023-04-15T06:23:21.412Z,8.43
2023-04-15T06:25:48.162Z,8.28
2023-04-15T06:28:14.525Z,8.36
2023-04-15T06:30:41.089Z,8.56
2023-04-15T06:33:07.478Z,8.62
2023-04-15T06:35:34.048Z,8.63
2023-04-15T06:38:00.394Z,8.58
2023-04-15T06:40:26.889Z,8.88
2023-04-15T06:42:53.268Z,8.81
2023-04-15T06:45:19.620Z,8.80
2023-04-15T06:47:45.995Z,9.14
2023-04-15T06:50:12.441Z,9.13
2023-04-15T06:52:38.860Z,9.21
2023-04-15T06:55:06.729Z,9.27
2023-04-15T06:57:34.908Z,9.11
2023-04-15T07:00:01.858Z,9.50
2023-04-15T07:02:28.416Z,9.31
2023-04-15T07:04:55.547Z,9.62
2023-04-15T07:07:21.957Z,9.51
2023-04-15T07:09:48.423Z,9.81
2023-04-15T07:12:15.248Z,9.66
2023-04-15T07:14:41.642Z,9.98
2023-04-15T07:17:09.284Z,10.13
2023-04-15T07:19:35.904Z,10.21
2023-04-15T07:22:02.301Z,10.21
2023-04-15T07:24:28.935Z,10.43
2023-04-15T07:27:00.832Z,10.76
2023-04-15T07:29:27.793Z,10.60
2023-04-15T07:31:54.271Z,10.81
2023-04-15T07:34:20.964Z,10.40
2023-04-15T07:36:50.537Z,10.82
2023-04-15T07:39:17.004Z,10.73
2023-04-15T07:41:43.553Z,10.79
2023-04-15T07:44:10.064Z,10.76
2023-04-15T07:46:37.268Z,10.70
2023-04-15T07:49:04.274Z,10.99
2023-04-15T07:51:30.854Z,11.08
2023-04-15T07:53:57.201Z,11.28
2023-04-15T07:56:23.625Z,11.13
2023-04-15T07:58:49.978Z,10.96
2023-04-15T08:01:16.506Z,11.19
2023-04-15T08:03:43.183Z,11.01
2023-04-15T08:06:09.696Z,11.05
2023-04-15T08:08:36.082Z,11.18
2023-04-15T08:11:02.462Z,10.84
2023-04-15T08:13:28.899Z,10.60
2023-04-15T08:16:14.431Z,10.67
2023-04-15T08:18:40.865Z,10.52
2023-04-15T08:21:07.245Z,10.75
2023-04-15T08:23:33.696Z,10.44
2023-04-15T08:26:00.202Z,10.55
2023-04-15T08:28:27.006Z,10.42
2023-04-15T08:30:53.484Z,10.44
2023-04-15T08:33:19.882Z,10.84
2023-04-15T08:35:46.539Z,10.67
2023-04-15T08:38:12.991Z,10.89
2023-04-15T08:40:42.620Z,10.58
2023-04-15T08:43:43.885Z,10.60
2023-04-15T08:46:11.706Z,10.70
2023-04-15T08:48:40.352Z,10.45
2023-04-15T08:51:07.482Z,10.27
2023-04-15T08:53:34.255Z,10.57
2023-04-15T08:56:07.419Z,10.78
2023-04-15T08:58:34.348Z,10.96
2023-04-15T09:01:01.515Z,11.24
2023-04-15T09:03:28.901Z,11.36
2023-04-15T09:05:57.273Z,11.57
2023-04-15T09:08:23.762Z,11.49
2023-04-15T09:10:50.341Z,11.15
2023-04-15T09:13:16.847Z,11.15
2023-04-15T09:15:43.981Z,11.05
2023-04-15T09:18:13.539Z,11.05
2023-04-15T09:20:44.258Z,11.17
2023-04-15T09:23:14.940Z,10.91
2023-04-15T09:25:44.423Z,11.11
2023-04-15T09:28:11.463Z,10.98
2023-04-15T09:30:38.029Z,10.99
2023-04-15T09:33:08.366Z,10.86
2023-04-15T09:35:37.736Z,11.07
2023-04-15T09:38:09.723Z,10.87
2023-04-15T09:40:41.817Z,10.80
2023-04-15T09:43:09.823Z,11.01
2023-04-15T09:45:36.499Z,10.98
2023-04-15T09:48:23.268Z,11.27
2023-04-15T09:50:50.398Z,11.17
2023-04-15T09:53:21.379Z,11.46
2023-04-15T09:55:52.835Z,11.14
2023-04-15T09:58:30.261Z,11.11
2023-04-15T10:00:58.323Z,11.29
2023-04-15T10:03:27.737Z,11.02
2023-04-15T10:05:57.138Z,11.24
2023-04-15T10:08:26.113Z,11.30
2023-04-15T10:10:53.720Z,11.29
2023-04-15T10:13:24.760Z,11.26
2023-04-15T10:16:00.805Z,11.44
2023-04-15T10:18:28.576Z,11.46
2023-04-15T10:20:55.488Z,11.37
2023-04-15T10:23:24.426Z,11.10
2023-04-15T10:25:53.988Z,11.16
2023-04-15T10:28:22.845Z,11.33
2023-04-15T10:30:50.015Z,11.19
2023-04-15T10:33:26.551Z,11.42
2023-04-15T10:35:55.547Z,11.38
2023-04-15T10:38:43.466Z,11.54
2023-04-15T10:41:24.612Z,11.52
2023-04-15T10:43:55.887Z,11.62
2023-04-15T10:46:40.000Z,11.51
2023-04-15T10:49:12.037Z,11.49
2023-04-15T10:51:47.579Z,11.22
2023-04-15T10:54:31.761Z,10.94
2023-04-15T10:57:03.898Z,11.30
2023-04-15T10:59:36.057Z,11.31
2023-04-15T11:02:05.255Z,11.20
2023-04-15T11:04:57.600Z,11.18
2023-04-15T11:08:03.339Z,11.17
2023-04-15T11:10:29.815Z,11.14
2023-04-15T11:13:16.592Z,11.14
2023-04-15T11:15:47.763Z,11.04
2023-04-15T11:18:22.311Z,11.16
2023-04-15T11:20:54.915Z,11.10
2023-04-15T11:23:28.727Z,10.83
2023-04-15T11:25:57.844Z,10.86
2023-04-15T11:28:28.886Z,10.65
2023-04-15T11:30:55.999Z,10.70
2023-04-15T11:33:23.807Z,10.82
2023-04-15T11:35:51.182Z,10.84
2023-04-15T11:38:17.623Z,10.83
2023-04-15T11:40:46.752Z,10.86
2023-04-15T11:43:16.648Z,10.69
2023-04-15T11:45:53.098Z,10.78
2023-04-15T11:48:21.824Z,11.13
2023-04-15T11:50:56.856Z,11.07
2023-04-15T11:53:24.148Z,11.05
2023-04-15T11:55:52.678Z,10.74
2023-04-15T11:58:21.955Z,10.66
2023-04-15T12:00:49.737Z,10.81
2023-04-15T12:03:22.475Z,10.77
2023-04-15T12:06:13.402Z,10.97
2023-04-15T12:08:55.412Z,10.89
2023-04-15T12:11:27.603Z,10.80
2023-04-15T12:13:56.669Z,10.76
2023-04-15T12:16:24.743Z,11.14
2023-04-15T12:18:58.924Z,11.06
2023-04-15T12:21:27.576Z,11.07
2023-04-15T12:23:56.491Z,10.79
2023-04-15T12:26:28.879Z,10.77
2023-04-15T12:29:07.014Z,10.77
2023-04-15T12:31:37.317Z,10.92
2023-04-15T12:34:08.505Z,10.95
2023-04-15T12:36:37.901Z,10.65
2023-04-15T12:39:05.240Z,10.56
2023-04-15T12:41:32.793Z,10.73
2023-04-15T12:43:59.553Z,10.70
2023-04-15T12:46:27.065Z,10.48
2023-04-15T12:48:53.998Z,10.84
2023-04-15T12:51:23.393Z,10.82
2023-04-15T12:53:49.850Z,10.66
2023-04-15T12:56:17.353Z,10.70
2023-04-15T12:58:43.832Z,10.62
2023-04-15T13:01:11.171Z,10.57
2023-04-15T13:03:37.844Z,10.50
2023-04-15T13:06:05.113Z,10.70
2023-04-15T13:08:32.294Z,10.80
2023-04-15T13:10:58.830Z,10.49
2023-04-15T13:13:25.640Z,10.26
2023-04-15T13:15:52.035Z,10.51
2023-04-15T13:18:18.497Z,10.47
2023-04-15T13:20:44.897Z,10.38
2023-04-15T13:23:11.495Z,10.47
2023-04-15T13:25:38.016Z,10.26
2023-04-15T13:28:04.399Z,10.37
2023-04-15T13:30:31.242Z,10.31
2023-04-15T13:32:57.864Z,10.39
2023-04-15T13:35:24.247Z,10.19
2023-04-15T13:37:50.618Z,10.36
2023-04-15T13:40:16.972Z,10.34
2023-04-15T13:42:43.431Z,10.11
2023-04-15T13:45:10.197Z,10.43
2023-04-15T13:47:36.638Z,10.33
2023-04-15T13:50:03.183Z,10.35
2023-04-15T13:52:29.608Z,10.39
2023-04-15T13:55:17.988Z,10.30
2023-04-15T13:57:42.951Z,10.36
2023-04-15T14:00:09.830Z,10.22
2023-04-15T14:02:36.723Z,10.11
2023-04-15T14:05:04.517Z,10.35
2023-04-15T14:07:31.049Z,10.44
2023-04-15T14:09:57.500Z,10.11
2023-04-15T14:12:23.915Z,10.24
2023-04-15T14:14:50.480Z,10.35
2023-04-15T14:17:16.875Z,10.41
2023-04-15T14:19:43.266Z,10.37
2023-04-15T14:22:09.712Z,10.25
2023-04-15T14:24:36.221Z,10.29
2023-04-15T14:27:03.224Z,9.87
2023-04-15T14:29:29.633Z,10.13
2023-04-15T14:32:11.380Z,10.10
2023-04-15T14:34:38.825Z,10.08
2023-04-15T14:37:05.225Z,10.27
2023-04-15T14:39:31.629Z,10.15
2023-04-15T14:41:58.419Z,10.21
2023-04-15T14:44:24.816Z,10.18
2023-04-15T14:46:51.673Z,10.27
2023-04-15T14:49:18.251Z,10.16
2023-04-15T14:51:44.654Z,10.10
2023-04-15T14:54:11.048Z,10.24
2023-04-15T14:56:37.654Z,10.17
2023-04-15T14:59:04.337Z,9.89
2023-04-15T15:01:30.895Z,10.09
2023-04-15T15:03:57.533Z,10.07
2023-04-15T15:06:23.997Z,10.09
2023-04-15T15:08:50.381Z,9.96
2023-04-15T15:11:17.271Z,10.05
2023-04-15T15:13:43.671Z,10.12
2023-04-15T15:16:11.394Z,10.03
2023-04-15T15:18:39.613Z,10.11
2023-04-15T15:21:06.116Z,10.34
2023-04-15T15:23:32.473Z,10.11
2023-04-15T15:25:59.052Z,10.04
2023-04-15T15:28:25.581Z,9.99
2023-04-15T15:30:51.987Z,9.99
2023-04-15T15:33:18.398Z,9.85
2023-04-15T15:35:44.774Z,9.99
2023-04-15T15:38:12.169Z,9.99
2023-04-15T15:40:38.915Z,9.86
2023-04-15T15:43:05.423Z,10.01
2023-04-15T15:45:31.929Z,9.83
2023-04-15T15:47:59.230Z,9.94
2023-04-15T15:50:25.714Z,9.89
2023-04-15T15:52:52.117Z,9.98
2023-04-15T15:55:18.813Z,9.94
2023-04-15T15:57:45.237Z,9.99
2023-04-15T16:00:12.981Z,10.13
2023-04-15T16:03:05.109Z,10.07
2023-04-15T16:05:26.185Z,10.02
2023-04-15T16:07:52.719Z,9.98
2023-04-15T16:10:19.140Z,9.63
2023-04-15T16:12:45.815Z,10.02
2023-04-15T16:15:12.511Z,9.89
2023-04-15T16:17:38.959Z,9.86
2023-04-15T16:20:06.237Z,9.97
2023-04-15T16:22:34.266Z,10.19
2023-04-15T16:25:01.017Z,10.02
2023-04-15T16:27:28.078Z,9.83
2023-04-15T16:29:54.567Z,9.91
2023-04-15T16:32:21.308Z,9.99
2023-04-15T16:34:47.850Z,9.96
2023-04-15T16:37:14.264Z,9.90
2023-04-15T16:39:40.804Z,9.77
2023-04-15T16:42:07.387Z,9.94
2023-04-15T16:44:33.986Z,10.04
2023-04-15T16:47:02.201Z,9.93
2023-04-15T16:49:29.789Z,9.89
2023-04-15T16:51:56.230Z,9.89
2023-04-15T16:54:22.834Z,9.83
2023-04-15T16:56:49.240Z,9.83
2023-04-15T16:59:15.672Z,9.67
2023-04-15T17:01:42.149Z,9.68
2023-04-15T17:04:08.661Z,9.62
2023-04-15T17:06:35.205Z,9.68
2023-04-15T17:09:01.579Z,9.62
2023-04-15T17:11:28.312Z,9.72
2023-04-15T17:13:54.783Z,9.71
2023-04-15T17:16:21.289Z,9.73
2023-04-15T17:18:47.790Z,9.71
2023-04-15T17:21:15.989Z,9.67
2023-04-15T17:23:42.418Z,9.80
2023-04-15T17:26:08.785Z,9.71
2023-04-15T17:28:35.377Z,9.75
2023-04-15T17:31:01.836Z,9.57
2023-04-15T17:34:00.310Z,9.80
2023-04-15T17:36:14.872Z,9.82
2023-04-15T17:38:41.224Z,9.76
2023-04-15T17:41:07.825Z,9.74
2023-04-15T17:43:34.380Z,9.81
2023-04-15T17:46:00.795Z,9.68
2023-04-15T17:48:27.426Z,9.71
2023-04-15T17:50:53.949Z,9.64
2023-04-15T17:53:20.301Z,9.62
2023-04-15T17:55:46.689Z,9.60
2023-04-15T17:58:13.124Z,9.74
2023-04-15T18:00:39.494Z,9.64
2023-04-15T18:03:06.084Z,9.63
2023-04-15T18:05:32.521Z,9.66
2023-04-15T18:07:58.913Z,9.67
2023-04-15T18:10:25.417Z,9.61
2023-04-15T18:12:51.847Z,9.59
2023-04-15T18:15:18.947Z,9.62
2023-04-15T18:17:45.702Z,9.61
2023-04-15T18:20:12.888Z,9.58
2023-04-15T18:22:39.669Z,9.58
2023-04-15T18:25:06.692Z,9.63
2023-04-15T18:27:33.898Z,9.79
2023-04-15T18:30:00.437Z,9.82
2023-04-15T18:32:31.682Z,9.72
2023-04-15T18:34:58.441Z,9.54
2023-04-15T18:37:26.114Z,9.56
2023-04-15T18:39:52.638Z,9.74
2023-04-15T18:42:20.947Z,9.70
2023-04-15T18:44:47.324Z,9.78
2023-04-15T18:47:13.912Z,9.82
2023-04-15T18:49:41.428Z,9.74
2023-04-15T18:52:09.495Z,9.87
2023-04-15T18:54:37.011Z,9.61
2023-04-15T18:57:06.434Z,9.69
2023-04-15T18:59:33.585Z,9.61
2023-04-15T19:02:01.365Z,9.67
2023-04-15T19:04:29.389Z,9.58
2023-04-15T19:06:56.067Z,9.77
2023-04-15T19:09:22.535Z,9.74
2023-04-15T19:11:48.943Z,9.73
2023-04-15T19:14:15.324Z,9.78
2023-04-15T19:16:41.792Z,9.85
2023-04-15T19:19:08.192Z,9.85
2023-04-15T19:21:34.829Z,9.80
2023-04-15T19:24:01.328Z,9.83
2023-04-15T19:26:27.955Z,9.94
2023-04-15T19:28:54.863Z,9.93
2023-04-15T19:31:21.321Z,9.76
2023-04-15T19:33:47.715Z,9.68
2023-04-15T19:36:14.228Z,9.80
2023-04-15T19:38:40.741Z,9.78
2023-04-15T19:41:07.156Z,9.62
2023-04-15T19:43:33.538Z,9.63
2023-04-15T19:46:00.122Z,9.84
2023-04-15T19:48:26.586Z,9.61
2023-04-15T19:50:53.085Z,9.97
2023-04-15T19:53:19.431Z,9.78
2023-04-15T19:55:46.997Z,9.92
2023-04-15T19:58:13.403Z,9.87
2023-04-15T20:00:39.796Z,9.65
2023-04-15T20:03:06.353Z,9.99
2023-04-15T20:05:32.953Z,9.99
2023-04-15T20:08:00.909Z,9.99
2023-04-15T20:10:27.506Z,9.80
2023-04-15T20:12:53.916Z,9.70
2023-04-15T20:15:21.467Z,10.05
2023-04-15T20:17:47.950Z,9.94
2023-04-15T20:20:14.364Z,9.98
2023-04-15T20:22:41.303Z,9.85
2023-04-15T20:25:07.986Z,9.97
2023-04-15T20:27:34.365Z,10.00
2023-04-15T20:30:00.800Z,9.99
2023-04-15T20:32:28.322Z,10.06
2023-04-15T20:34:54.893Z,10.00
2023-04-15T20:37:21.352Z,10.11
2023-04-15T20:39:47.828Z,10.09
2023-04-15T20:42:14.248Z,10.10
2023-04-15T20:44:40.645Z,10.05
2023-04-15T20:47:07.329Z,10.05
2023-04-15T20:49:37.126Z,10.09
2023-04-15T20:52:05.128Z,9.94
2023-04-15T20:54:31.530Z,10.30
2023-04-15T20:56:58.119Z,10.30
2023-04-15T20:59:25.105Z,10.32
2023-04-15T21:01:51.799Z,10.29
2023-04-15T21:04:18.295Z,10.27
2023-04-15T21:06:44.863Z,9.96
2023-04-15T21:09:11.272Z,10.21
2023-04-15T21:14:08.357Z,10.26
2023-04-15T21:16:34.969Z,10.26
2023-04-15T21:19:01.333Z,10.34
2023-04-15T21:21:28.075Z,10.37
2023-04-15T21:23:54.470Z,10.30
2023-04-15T21:26:20.838Z,10.25
2023-04-15T21:28:47.203Z,10.32
2023-04-15T21:31:14.010Z,10.40
2023-04-15T21:33:40.386Z,10.23
2023-04-15T21:36:07.312Z,10.31
2023-04-15T21:38:34.104Z,10.28
2023-04-15T21:41:01.165Z,10.29
2023-04-15T21:43:27.697Z,10.39
2023-04-15T21:46:22.816Z,10.47
2023-04-15T21:48:40.472Z,10.43
2023-04-15T21:51:08.231Z,10.51
2023-04-15T21:53:34.857Z,10.34
2023-04-15T21:56:01.649Z,10.44
2023-04-15T21:58:28.050Z,10.27
2023-04-15T22:00:59.100Z,10.31
2023-04-15T22:03:28.513Z,10.37
2023-04-15T22:05:55.144Z,10.43
2023-04-15T22:08:21.511Z,10.48
2023-04-15T22:10:47.914Z,10.56
2023-04-15T22:13:14.285Z,10.43
2023-04-15T22:15:41.846Z,10.32
2023-04-15T22:18:08.328Z,10.30
2023-04-15T22:20:34.751Z,10.19
2023-04-15T22:23:03.786Z,10.32
2023-04-15T22:25:30.784Z,10.25
2023-04-15T22:27:57.123Z,10.22
2023-04-15T22:30:23.638Z,10.26
2023-04-15T22:32:50.111Z,10.23
2023-04-15T22:35:16.667Z,10.16
2023-04-15T22:37:43.062Z,10.08
2023-04-15T22:40:09.944Z,10.07
2023-04-15T22:42:36.386Z,10.05
2023-04-15T22:45:02.834Z,10.12
2023-04-15T22:47:29.319Z,9.91
2023-04-15T22:49:55.959Z,9.98
2023-04-15T22:52:29.847Z,9.84
2023-04-15T22:54:57.545Z,9.94
2023-04-15T22:57:23.992Z,9.77
2023-04-15T22:59:50.396Z,9.68
2023-04-15T23:02:17.072Z,9.71
2023-04-15T23:04:43.638Z,9.69
2023-04-15T23:07:10.056Z,9.51
2023-04-15T23:09:36.678Z,9.54
2023-04-15T23:12:03.558Z,9.61
2023-04-15T23:14:30.763Z,9.60
2023-04-15T23:16:58.150Z,9.60
2023-04-15T23:19:24.858Z,9.56
2023-04-15T23:21:51.259Z,9.50
2023-04-15T23:24:17.670Z,9.57
2023-04-15T23:26:44.101Z,9.46
2023-04-15T23:29:10.752Z,9.44
2023-04-15T23:31:37.337Z,9.40
2023-04-15T23:34:04.116Z,9.29
2023-04-15T23:36:31.733Z,9.32
2023-04-15T23:38:58.137Z,9.28
2023-04-15T23:41:24.491Z,9.37
2023-04-15T23:43:51.628Z,9.39
2023-04-15T23:46:18.043Z,9.27
2023-04-15T23:48:44.454Z,9.28
2023-04-15T23:51:11.003Z,9.12
2023-04-15T23:53:37.375Z,9.19
2023-04-15T23:56:04.032Z,9.10
2023-04-15T23:58:31.018Z,9.02
